Terminal Aerodrome Forecast
Issued by NWS Paducah, KY

Home | Current Version | Previous Version | Text Only | Print | Product List | Glossary On
Versions: 1 2 3 4 5 6 7 8 9 10 11 12 13 14 15 16 17 18
372
FTUS43 KPAH 081108 AAA
TAFEVV
TAF AMD
KEVV 081108Z 0811/0906 32011KT P6SM SCT025 BKN090
      TEMPO 0811/0813 BKN025
     FM081500 29011G18KT P6SM SKC
     FM090000 30007KT P6SM SCT250=

USA.gov is the U.S. government's official web portal to all federal, state and local government web resources and services.